Kirishima Maru No.17 — JD3391 — position and weather

sailwx.info

Track history (hours):
 
Tides and Currents Weather Stations Pressure Air Temp Water Temp Dewpoint Dewpoint Depression Visibility Wind Speed Wind Dir Waves Ship Positions

Kirishima Maru No.17

Last reported at 2017-Dec-16 08:11 UTC. Time now 2017-Dec-17 04:28 UTC.
Position N 34°26' E 134°27'.

Length 91 m; draft 5.6 m.

Type: Tanker. MMSI: 431003736.

Date/timePositionNaut miles runAvg speedWind from/ knotsBaromVisibWave heightAir tempDewpointWater temp
2017-Dec-16 08:11N 34°26' E 134°27'413.6
2017-Dec-16 07:55N 34°28' E 134°31'613.3
2017-Dec-16 07:29N 34°31' E 134°37'613.3
2017-Dec-16 07:00N 34°33' E 134°45'613.2
2017-Dec-16 06:30N 34°35' E 134°52'612.7
2017-Dec-16 06:00N 34°38' E 134°59'611.3
2017-Dec-16 05:30N 34°36' E 135°06'713.1
2017-Dec-16 05:00N 34°34' E 135°13'713.3
2017-Dec-16 04:30N 34°33' E 135°21'3 5.7
2017-Dec-16 04:00N 34°32' E 135°24'0 0.0
2017-Dec-16 03:28N 34°32' E 135°24'0 0.0
2017-Dec-16 02:56N 34°32' E 135°24'0 0.0
2017-Dec-16 02:28N 34°32' E 135°24'0 0.0
2017-Dec-16 01:56N 34°32' E 135°24'0 0.0
2017-Dec-16 01:28N 34°32' E 135°24'0 0.0
2017-Dec-16 00:55N 34°32' E 135°24'0 0.0
2017-Dec-16 00:28N 34°32' E 135°24'0 0.0
2017-Dec-15 23:58N 34°32' E 135°24'0 0.0
2017-Dec-15 23:28N 34°32' E 135°24'0 0.0
2017-Dec-15 23:00N 34°32' E 135°24'2 4.1
2017-Dec-15 22:31N 34°33' E 135°22'2 4.3
2017-Dec-15 21:58N 34°32' E 135°19'0 0.1
2017-Dec-15 21:28N 34°32' E 135°19'0 0.1
2017-Dec-15 20:58N 34°32' E 135°19'0 0.0
2017-Dec-15 20:28N 34°32' E 135°19'0 0.1
2017-Dec-15 19:58N 34°32' E 135°19'0 0.1
2017-Dec-15 19:28N 34°32' E 135°19'0 0.0
2017-Dec-15 18:58N 34°32' E 135°19'0 0.1
2017-Dec-15 18:28N 34°32' E 135°19'0 0.0
2017-Dec-15 17:58N 34°32' E 135°19'0 0.1
2017-Dec-15 17:28N 34°32' E 135°19'0 0.0
2017-Dec-15 16:58N 34°32' E 135°19'0 0.1
2017-Dec-15 16:28N 34°32' E 135°19'0 0.0
2017-Dec-15 15:58N 34°32' E 135°19'0 0.1
2017-Dec-15 15:28N 34°32' E 135°19'0 0.1
2017-Dec-15 14:58N 34°32' E 135°19'0 0.0
2017-Dec-15 14:28N 34°32' E 135°19'0 0.0
2017-Dec-15 13:58N 34°32' E 135°19'0 0.0
2017-Dec-15 13:28N 34°32' E 135°19'0 0.1
2017-Dec-15 12:58N 34°32' E 135°19'0 0.1
2017-Dec-15 12:28N 34°32' E 135°19'0 0.1
2017-Dec-15 11:58N 34°32' E 135°19'0 0.0
2017-Dec-15 11:28N 34°32' E 135°19'0 0.0
2017-Dec-15 10:58N 34°32' E 135°19'0 0.0
2017-Dec-15 10:28N 34°32' E 135°19'0 0.0
2017-Dec-15 09:58N 34°32' E 135°19'0 0.0
2017-Dec-15 09:28N 34°32' E 135°19'0 0.1
2017-Dec-15 08:58N 34°32' E 135°19'0 0.0
2017-Dec-15 08:28N 34°32' E 135°19'0 0.0
2017-Dec-15 07:58N 34°32' E 135°19'0 0.0
2017-Dec-15 07:28N 34°32' E 135°19'0 0.0
2017-Dec-15 06:58N 34°32' E 135°19'1 2.4
2017-Dec-15 06:30N 34°32' E 135°18'713.6
2017-Dec-15 06:00N 34°28' E 135°12'713.3
2017-Dec-15 05:30N 34°23' E 135°05'612.9
2017-Dec-15 05:00N 34°19' E 135°00'611.6
2017-Dec-15 04:30N 34°13' E 135°01'713.7
2017-Dec-15 04:00N 34°09' E 135°08'1 0.1
2017-Dec-14 18:30N 34°10' E 135°09'0 0.0
2017-Dec-14 18:00N 34°10' E 135°09'0 0.1
2017-Dec-14 17:30N 34°10' E 135°09'0 0.0
2017-Dec-14 17:00N 34°10' E 135°09'510.7
2017-Dec-14 16:31N 34°13' E 135°04'713.0
2017-Dec-14 16:00N 34°18' E 134°58'1413.9
2017-Dec-14 15:00N 34°31' E 135°02'612.5
2017-Dec-14 14:31N 34°37' E 134°60'815.4
2017-Dec-14 14:01N 34°34' E 134°51'713.9
2017-Dec-14 13:30N 34°31' E 134°44'713.3
2017-Dec-14 13:00N 34°29' E 134°36'713.2
2017-Dec-14 12:30N 34°26' E 134°29'21 0.8
2017-Dec-13 10:01N 34°27' E 134°04'2012.9
2017-Dec-13 08:27N 34°27' E 134°28'613.7
2017-Dec-13 08:00N 34°29' E 134°35'713.7
2017-Dec-13 07:30N 34°32' E 134°42'713.7
2017-Dec-13 07:00N 34°35' E 134°50'713.8
2017-Dec-13 06:30N 34°37' E 134°58'612.6
2017-Dec-13 06:01N 34°36' E 135°05'713.0
2017-Dec-13 05:30N 34°36' E 135°13'713.2
2017-Dec-13 05:00N 34°36' E 135°21'4 8.1
2017-Dec-13 04:30N 34°35' E 135°26'0 0.3
2017-Dec-13 03:58N 34°34' E 135°26'0 0.0
2017-Dec-13 03:28N 34°34' E 135°26'0 0.0
2017-Dec-13 02:59N 34°34' E 135°26'0 0.0
2017-Dec-13 02:28N 34°35' E 135°26'0 0.0
2017-Dec-13 01:58N 34°35' E 135°26'0 0.0
2017-Dec-13 01:29N 34°34' E 135°26'0 0.0
2017-Dec-13 00:58N 34°34' E 135°26'0 0.0
2017-Dec-13 00:28N 34°34' E 135°26'0 0.0
2017-Dec-12 23:58N 34°34' E 135°26'0 0.0
2017-Dec-12 23:29N 34°35' E 135°26'0 0.0
2017-Dec-12 22:58N 34°34' E 135°26'0 0.5
2017-Dec-12 22:31N 34°35' E 135°26'3 5.1
2017-Dec-12 22:00N 34°36' E 135°23'4 7.3
2017-Dec-12 21:30N 34°33' E 135°22'2 4.3
2017-Dec-12 20:58N 34°31' E 135°24'0 0.0
2017-Dec-12 20:28N 34°31' E 135°24'0 0.0
2017-Dec-12 19:58N 34°31' E 135°24'0 0.0
2017-Dec-12 19:28N 34°31' E 135°24'0 0.0
2017-Dec-12 18:58N 34°31' E 135°24'0 0.0
2017-Dec-12 18:28N 34°31' E 135°24'0 0.0
2017-Dec-12 17:58N 34°31' E 135°24'0 0.0
2017-Dec-12 17:28N 34°31' E 135°24'0 0.0
2017-Dec-12 16:58N 34°31' E 135°24'0 0.0
2017-Dec-12 16:28N 34°31' E 135°24'0 0.0
2017-Dec-12 15:58N 34°31' E 135°24'0 0.0
2017-Dec-12 15:28N 34°31' E 135°24'0 0.0
2017-Dec-12 14:58N 34°31' E 135°24'0 0.0
2017-Dec-12 14:28N 34°31' E 135°24'0 0.0
2017-Dec-12 13:58N 34°31' E 135°24'0 0.0
2017-Dec-12 13:28N 34°31' E 135°24'0 0.0
2017-Dec-12 12:58N 34°31' E 135°24'0 0.0
2017-Dec-12 12:28N 34°31' E 135°24'0 0.0
2017-Dec-12 11:58N 34°31' E 135°24'0 0.0
2017-Dec-12 11:25N 34°31' E 135°24'0 0.0
2017-Dec-12 10:58N 34°31' E 135°24'0 0.0
2017-Dec-12 10:28N 34°31' E 135°24'0 0.0
2017-Dec-12 09:58N 34°31' E 135°24'0 0.0
2017-Dec-12 09:28N 34°31' E 135°24'0 0.0
2017-Dec-12 08:55N 34°31' E 135°24'0 0.0
2017-Dec-12 08:28N 34°31' E 135°24'0 0.0
2017-Dec-12 07:58N 34°31' E 135°24'0 0.0
2017-Dec-12 07:28N 34°31' E 135°24'0 0.0
2017-Dec-12 06:58N 34°31' E 135°24'0 0.0
2017-Dec-12 06:28N 34°31' E 135°24'0 0.0
2017-Dec-12 06:00N 34°31' E 135°24'2 3.4
2017-Dec-12 05:31N 34°33' E 135°23'612.7
2017-Dec-12 05:01N 34°31' E 135°16'613.0
2017-Dec-12 04:31N 34°27' E 135°09'713.9
2017-Dec-12 04:00N 34°23' E 135°03'713.3
2017-Dec-12 03:30N 34°17' E 134°59'613.0
2017-Dec-12 03:00N 34°11' E 134°56'713.3
2017-Dec-12 02:30N 34°05' E 134°52'713.1
2017-Dec-12 02:00N 33°59' E 134°49'8 1.5
2017-Dec-11 20:34N 33°53' E 134°42'1 3.0
2017-Dec-11 20:19N 33°53' E 134°43'1312.2
2017-Dec-11 19:14N 33°47' E 134°57'108 8.7
2017-Dec-11 06:50N 34°39' E 136°52'914.0
2017-Dec-11 06:13N 34°46' E 136°46'314.3
2017-Dec-11 06:00N 34°49' E 136°45'714.1
2017-Dec-11 05:30N 34°56' E 136°43'4 8.0
2017-Dec-11 05:00N 34°58' E 136°39'0 0.0
2017-Dec-11 04:30N 34°58' E 136°39'0 0.0
2017-Dec-11 03:58N 34°58' E 136°39'0 0.0
2017-Dec-11 03:22N 34°58' E 136°39'0 0.0
2017-Dec-11 02:58N 34°58' E 136°39'0 0.0
2017-Dec-11 02:22N 34°58' E 136°39'0 0.0
2017-Dec-11 01:58N 34°58' E 136°39'0 0.0
2017-Dec-11 01:28N 34°58' E 136°39'0 0.0
2017-Dec-11 00:58N 34°58' E 136°39'0 0.0
2017-Dec-11 00:28N 34°58' E 136°39'0 0.0
2017-Dec-10 23:58N 34°58' E 136°39'2 4.2
2017-Dec-10 23:30N 34°57' E 136°41'0 0.6
2017-Dec-10 22:59N 34°57' E 136°41'0 0.0
2017-Dec-10 22:29N 34°57' E 136°41'0 0.0
2017-Dec-10 21:59N 34°57' E 136°41'0 0.0
2017-Dec-10 21:29N 34°57' E 136°41'0 0.0
2017-Dec-10 20:59N 34°57' E 136°41'0 0.0
2017-Dec-10 20:29N 34°57' E 136°41'0 0.0
2017-Dec-10 19:56N 34°57' E 136°41'0 0.0
2017-Dec-10 19:29N 34°57' E 136°41'0 0.1
2017-Dec-10 18:59N 34°57' E 136°41'0 0.0
2017-Dec-10 18:29N 34°57' E 136°41'0 0.0
2017-Dec-10 17:59N 34°57' E 136°41'0 0.0
2017-Dec-10 17:29N 34°57' E 136°41'0 0.0
2017-Dec-10 16:59N 34°57' E 136°41'0 0.0
2017-Dec-10 16:29N 34°57' E 136°41'0 0.0
2017-Dec-10 15:59N 34°57' E 136°41'0 0.0
2017-Dec-10 15:29N 34°57' E 136°41'0 0.0
2017-Dec-10 14:59N 34°57' E 136°41'0 0.0
2017-Dec-10 14:29N 34°57' E 136°41'0 0.0
2017-Dec-10 13:59N 34°57' E 136°41'0 0.0
2017-Dec-10 13:29N 34°57' E 136°41'0 0.1
2017-Dec-10 12:59N 34°57' E 136°42'0 0.1
2017-Dec-10 12:29N 34°57' E 136°41'0 0.0
2017-Dec-10 11:59N 34°57' E 136°41'0 0.1
2017-Dec-10 11:29N 34°57' E 136°42'0 0.0
2017-Dec-10 10:59N 34°57' E 136°42'0 0.0
2017-Dec-10 10:29N 34°57' E 136°42'0 0.0
2017-Dec-10 09:59N 34°57' E 136°42'0 0.0
2017-Dec-10 09:29N 34°57' E 136°42'2 4.5
2017-Dec-10 09:00N 34°58' E 136°39'0 0.3
2017-Dec-10 08:25N 34°58' E 136°39'0 0.0
2017-Dec-10 07:55N 34°58' E 136°39'0 0.0
2017-Dec-10 07:25N 34°58' E 136°39'0 0.0
2017-Dec-10 06:55N 34°58' E 136°39'0 0.0
2017-Dec-10 06:19N 34°58' E 136°39'0 0.0
2017-Dec-10 05:55N 34°58' E 136°39'0 0.0
2017-Dec-10 05:25N 34°58' E 136°39'0 0.0
2017-Dec-10 04:55N 34°58' E 136°39'1 1.8
2017-Dec-10 04:30N 34°58' E 136°40'611.3
2017-Dec-10 04:00N 34°53' E 136°44'612.8
2017-Dec-10 03:30N 34°48' E 136°47'612.6
2017-Dec-10 03:00N 34°42' E 136°50'1811.5
2017-Dec-10 01:24N 34°33' E 137°10'512.8
2017-Dec-10 01:00N 34°32' E 137°16'3612.9
2017-Dec-09 22:14N 34°32' E 137°59'312.1
2017-Dec-09 22:00N 34°32' E 138°03'811.5
2017-Dec-09 21:18N 34°32' E 138°13'311.4
2017-Dec-09 21:00N 34°32' E 138°17'711.8
2017-Dec-09 20:26N 34°32' E 138°25'511.6
2017-Dec-09 20:00N 34°32' E 138°31'611.3
2017-Dec-09 19:30N 34°32' E 138°38'711.0
2017-Dec-09 18:49N 34°33' E 138°47'310.7
2017-Dec-09 18:30N 34°33' E 138°51'510.1
2017-Dec-09 18:00N 34°33' E 138°57'711.1
2017-Dec-09 17:24N 34°38' E 139°03'511.6
2017-Dec-09 17:00N 34°41' E 139°07'611.2
2017-Dec-09 16:29N 34°45' E 139°12'511.1
2017-Dec-09 16:00N 34°49' E 139°17'611.2
2017-Dec-09 15:26N 34°52' E 139°23'812.0
2017-Dec-09 14:48N 34°57' E 139°30'412.5
2017-Dec-09 14:30N 34°59' E 139°34'611.8
2017-Dec-09 14:00N 35°03' E 139°40'612.4
2017-Dec-09 13:30N 35°08' E 139°45'713.2
2017-Dec-09 13:00N 35°14' E 139°46'613.0
2017-Dec-09 12:31N 35°20' E 139°43'611.9
2017-Dec-09 12:00N 35°26' E 139°45'713.1
2017-Dec-09 11:30N 35°29' E 139°51'612.9
2017-Dec-09 11:00N 35°32' E 139°59'4 7.8
2017-Dec-09 10:30N 35°32' E 140°03'0 0.0
2017-Dec-09 06:24N 35°32' E 140°03'1 2.0
2017-Dec-09 06:01N 35°32' E 140°02'0 0.5
2017-Dec-09 05:29N 35°32' E 140°02'0 0.0
2017-Dec-09 05:00N 35°32' E 140°02'611.0
2017-Dec-09 04:30N 35°29' E 139°56'613.2
2017-Dec-09 04:00N 35°26' E 139°49'713.4
2017-Dec-09 03:30N 35°21' E 139°45'612.5
2017-Dec-09 03:00N 35°15' E 139°47'713.8
2017-Dec-09 02:30N 35°08' E 139°46'714.1
2017-Dec-09 02:00N 35°03' E 139°40'714.2
2017-Dec-09 01:30N 34°58' E 139°33'815.0
2017-Dec-09 00:58N 34°54' E 139°25'714.2
2017-Dec-09 00:27N 34°49' E 139°18'714.9
2017-Dec-09 00:00N 34°44' E 139°12'714.8
2017-Dec-08 23:30N 34°39' E 139°06'714.4
2017-Dec-08 23:00N 34°34' E 138°59'713.8
2017-Dec-08 22:30N 34°32' E 138°51'815.1
2017-Dec-08 21:58N 34°32' E 138°42'815.2
2017-Dec-08 21:29N 34°32' E 138°32'914.8
2017-Dec-08 20:51N 34°32' E 138°21'515.1
2017-Dec-08 20:30N 34°32' E 138°15'815.0
2017-Dec-08 19:59N 34°32' E 138°05'714.5
2017-Dec-08 19:29N 34°32' E 137°56'6413.0
2017-Dec-08 14:36N 34°05' E 136°46'213.0
2017-Dec-08 14:25N 34°04' E 136°44'8710.5
2017-Dec-08 06:10N 33°52' E 135°01'814.4
2017-Dec-08 05:39N 33°60' E 135°01'214.2
2017-Dec-08 05:31N 34°01' E 135°01'713.3
2017-Dec-08 05:00N 34°08' E 135°05'612.3
2017-Dec-08 04:30N 34°09' E 135°12'0 0.1
2017-Dec-08 01:17N 34°09' E 135°12'0 0.0
2017-Dec-08 00:41N 34°09' E 135°12'0 0.3
2017-Dec-08 00:30N 34°09' E 135°12'1 2.8
2017-Dec-08 00:00N 34°09' E 135°10'1 1.9
2017-Dec-07 23:30N 34°09' E 135°09'0 0.0
2017-Dec-07 23:00N 34°09' E 135°09'0 0.0
2017-Dec-07 22:30N 34°09' E 135°09'0 0.0
2017-Dec-07 22:00N 34°09' E 135°09'0 0.1
2017-Dec-07 21:30N 34°09' E 135°09'0 0.2
2017-Dec-07 21:00N 34°09' E 135°09'0 0.1
2017-Dec-07 20:30N 34°09' E 135°09'0 0.0
2017-Dec-07 20:00N 34°09' E 135°09'0 0.1
2017-Dec-07 19:27N 34°09' E 135°09'0 0.0
2017-Dec-07 19:00N 34°09' E 135°09'0 0.1
2017-Dec-07 18:30N 34°09' E 135°09'0 0.6
2017-Dec-07 18:00N 34°10' E 135°09'510.5
2017-Dec-07 17:31N 34°13' E 135°04'612.8
2017-Dec-07 17:00N 34°17' E 134°58'713.1
2017-Dec-07 16:30N 34°24' E 134°60'612.7
2017-Dec-07 16:00N 34°30' E 135°01'611.8
2017-Dec-07 15:30N 34°36' E 135°03'510.2
2017-Dec-07 15:00N 34°36' E 134°57'611.5
2017-Dec-07 14:30N 34°34' E 134°50'612.0
2017-Dec-07 14:00N 34°31' E 134°43'612.5
2017-Dec-07 13:30N 34°29' E 134°36'712.8
2017-Dec-07 13:00N 34°26' E 134°29'912.6
2017-Dec-07 12:16N 34°23' E 134°19'512.1
2017-Dec-07 11:49N 34°24' E 134°12'  
Track history (hours):
 
Tides and Currents Weather Stations Pressure Air Temp Water Temp Dewpoint Dewpoint Depression Visibility Wind Speed Wind Dir Waves Ship Positions

Kirishima Maru No.17

Last reported at 2017-Dec-16 08:11 UTC. Time now 2017-Dec-17 04:28 UTC.
Position N 34°26' E 134°27'.

Length 91 m; draft 5.6 m.

Type: Tanker. MMSI: 431003736.

Date/timePositionNaut miles runAvg speedWind from/ knotsBaromVisibWave heightAir tempDewpointWater temp
2017-Dec-16 08:11N 34°26' E 134°27'413.6
2017-Dec-16 07:55N 34°28' E 134°31'613.3
2017-Dec-16 07:29N 34°31' E 134°37'613.3
2017-Dec-16 07:00N 34°33' E 134°45'613.2
2017-Dec-16 06:30N 34°35' E 134°52'612.7
2017-Dec-16 06:00N 34°38' E 134°59'611.3
2017-Dec-16 05:30N 34°36' E 135°06'713.1
2017-Dec-16 05:00N 34°34' E 135°13'713.3
2017-Dec-16 04:30N 34°33' E 135°21'3 5.7
2017-Dec-16 04:00N 34°32' E 135°24'0 0.0
2017-Dec-16 03:28N 34°32' E 135°24'0 0.0
2017-Dec-16 02:56N 34°32' E 135°24'0 0.0
2017-Dec-16 02:28N 34°32' E 135°24'0 0.0
2017-Dec-16 01:56N 34°32' E 135°24'0 0.0
2017-Dec-16 01:28N 34°32' E 135°24'0 0.0
2017-Dec-16 00:55N 34°32' E 135°24'0 0.0
2017-Dec-16 00:28N 34°32' E 135°24'0 0.0
2017-Dec-15 23:58N 34°32' E 135°24'0 0.0
2017-Dec-15 23:28N 34°32' E 135°24'0 0.0
2017-Dec-15 23:00N 34°32' E 135°24'2 4.1
2017-Dec-15 22:31N 34°33' E 135°22'2 4.3
2017-Dec-15 21:58N 34°32' E 135°19'0 0.1
2017-Dec-15 21:28N 34°32' E 135°19'0 0.1
2017-Dec-15 20:58N 34°32' E 135°19'0 0.0
2017-Dec-15 20:28N 34°32' E 135°19'0 0.1
2017-Dec-15 19:58N 34°32' E 135°19'0 0.1
2017-Dec-15 19:28N 34°32' E 135°19'0 0.0
2017-Dec-15 18:58N 34°32' E 135°19'0 0.1
2017-Dec-15 18:28N 34°32' E 135°19'0 0.0
2017-Dec-15 17:58N 34°32' E 135°19'0 0.1
2017-Dec-15 17:28N 34°32' E 135°19'0 0.0
2017-Dec-15 16:58N 34°32' E 135°19'0 0.1
2017-Dec-15 16:28N 34°32' E 135°19'0 0.0
2017-Dec-15 15:58N 34°32' E 135°19'0 0.1
2017-Dec-15 15:28N 34°32' E 135°19'0 0.1
2017-Dec-15 14:58N 34°32' E 135°19'0 0.0
2017-Dec-15 14:28N 34°32' E 135°19'0 0.0
2017-Dec-15 13:58N 34°32' E 135°19'0 0.0
2017-Dec-15 13:28N 34°32' E 135°19'0 0.1
2017-Dec-15 12:58N 34°32' E 135°19'0 0.1
2017-Dec-15 12:28N 34°32' E 135°19'0 0.1
2017-Dec-15 11:58N 34°32' E 135°19'0 0.0
2017-Dec-15 11:28N 34°32' E 135°19'0 0.0
2017-Dec-15 10:58N 34°32' E 135°19'0 0.0
2017-Dec-15 10:28N 34°32' E 135°19'0 0.0
2017-Dec-15 09:58N 34°32' E 135°19'0 0.0
2017-Dec-15 09:28N 34°32' E 135°19'0 0.1
2017-Dec-15 08:58N 34°32' E 135°19'0 0.0
2017-Dec-15 08:28N 34°32' E 135°19'0 0.0
2017-Dec-15 07:58N 34°32' E 135°19'0 0.0
2017-Dec-15 07:28N 34°32' E 135°19'0 0.0
2017-Dec-15 06:58N 34°32' E 135°19'1 2.4
2017-Dec-15 06:30N 34°32' E 135°18'713.6
2017-Dec-15 06:00N 34°28' E 135°12'713.3
2017-Dec-15 05:30N 34°23' E 135°05'612.9
2017-Dec-15 05:00N 34°19' E 135°00'611.6
2017-Dec-15 04:30N 34°13' E 135°01'713.7
2017-Dec-15 04:00N 34°09' E 135°08'1 0.1
2017-Dec-14 18:30N 34°10' E 135°09'0 0.0
2017-Dec-14 18:00N 34°10' E 135°09'0 0.1
2017-Dec-14 17:30N 34°10' E 135°09'0 0.0
2017-Dec-14 17:00N 34°10' E 135°09'510.7
2017-Dec-14 16:31N 34°13' E 135°04'713.0
2017-Dec-14 16:00N 34°18' E 134°58'1413.9
2017-Dec-14 15:00N 34°31' E 135°02'612.5
2017-Dec-14 14:31N 34°37' E 134°60'815.4
2017-Dec-14 14:01N 34°34' E 134°51'713.9
2017-Dec-14 13:30N 34°31' E 134°44'713.3
2017-Dec-14 13:00N 34°29' E 134°36'713.2
2017-Dec-14 12:30N 34°26' E 134°29'21 0.8
2017-Dec-13 10:01N 34°27' E 134°04'2012.9
2017-Dec-13 08:27N 34°27' E 134°28'613.7
2017-Dec-13 08:00N 34°29' E 134°35'713.7
2017-Dec-13 07:30N 34°32' E 134°42'713.7
2017-Dec-13 07:00N 34°35' E 134°50'713.8
2017-Dec-13 06:30N 34°37' E 134°58'612.6
2017-Dec-13 06:01N 34°36' E 135°05'713.0
2017-Dec-13 05:30N 34°36' E 135°13'713.2
2017-Dec-13 05:00N 34°36' E 135°21'4 8.1
2017-Dec-13 04:30N 34°35' E 135°26'0 0.3
2017-Dec-13 03:58N 34°34' E 135°26'0 0.0
2017-Dec-13 03:28N 34°34' E 135°26'0 0.0
2017-Dec-13 02:59N 34°34' E 135°26'0 0.0
2017-Dec-13 02:28N 34°35' E 135°26'0 0.0
2017-Dec-13 01:58N 34°35' E 135°26'0 0.0
2017-Dec-13 01:29N 34°34' E 135°26'0 0.0
2017-Dec-13 00:58N 34°34' E 135°26'0 0.0
2017-Dec-13 00:28N 34°34' E 135°26'0 0.0
2017-Dec-12 23:58N 34°34' E 135°26'0 0.0
2017-Dec-12 23:29N 34°35' E 135°26'0 0.0
2017-Dec-12 22:58N 34°34' E 135°26'0 0.5
2017-Dec-12 22:31N 34°35' E 135°26'3 5.1
2017-Dec-12 22:00N 34°36' E 135°23'4 7.3
2017-Dec-12 21:30N 34°33' E 135°22'2 4.3
2017-Dec-12 20:58N 34°31' E 135°24'0 0.0
2017-Dec-12 20:28N 34°31' E 135°24'0 0.0
2017-Dec-12 19:58N 34°31' E 135°24'0 0.0
2017-Dec-12 19:28N 34°31' E 135°24'0 0.0
2017-Dec-12 18:58N 34°31' E 135°24'0 0.0
2017-Dec-12 18:28N 34°31' E 135°24'0 0.0
2017-Dec-12 17:58N 34°31' E 135°24'0 0.0
2017-Dec-12 17:28N 34°31' E 135°24'0 0.0
2017-Dec-12 16:58N 34°31' E 135°24'0 0.0
2017-Dec-12 16:28N 34°31' E 135°24'0 0.0
2017-Dec-12 15:58N 34°31' E 135°24'0 0.0
2017-Dec-12 15:28N 34°31' E 135°24'0 0.0
2017-Dec-12 14:58N 34°31' E 135°24'0 0.0
2017-Dec-12 14:28N 34°31' E 135°24'0 0.0
2017-Dec-12 13:58N 34°31' E 135°24'0 0.0
2017-Dec-12 13:28N 34°31' E 135°24'0 0.0
2017-Dec-12 12:58N 34°31' E 135°24'0 0.0
2017-Dec-12 12:28N 34°31' E 135°24'0 0.0
2017-Dec-12 11:58N 34°31' E 135°24'0 0.0
2017-Dec-12 11:25N 34°31' E 135°24'0 0.0
2017-Dec-12 10:58N 34°31' E 135°24'0 0.0
2017-Dec-12 10:28N 34°31' E 135°24'0 0.0
2017-Dec-12 09:58N 34°31' E 135°24'0 0.0
2017-Dec-12 09:28N 34°31' E 135°24'0 0.0
2017-Dec-12 08:55N 34°31' E 135°24'0 0.0
2017-Dec-12 08:28N 34°31' E 135°24'0 0.0
2017-Dec-12 07:58N 34°31' E 135°24'0 0.0
2017-Dec-12 07:28N 34°31' E 135°24'0 0.0
2017-Dec-12 06:58N 34°31' E 135°24'0 0.0
2017-Dec-12 06:28N 34°31' E 135°24'0 0.0
2017-Dec-12 06:00N 34°31' E 135°24'2 3.4
2017-Dec-12 05:31N 34°33' E 135°23'612.7
2017-Dec-12 05:01N 34°31' E 135°16'613.0
2017-Dec-12 04:31N 34°27' E 135°09'713.9
2017-Dec-12 04:00N 34°23' E 135°03'713.3
2017-Dec-12 03:30N 34°17' E 134°59'613.0
2017-Dec-12 03:00N 34°11' E 134°56'713.3
2017-Dec-12 02:30N 34°05' E 134°52'713.1
2017-Dec-12 02:00N 33°59' E 134°49'8 1.5
2017-Dec-11 20:34N 33°53' E 134°42'1 3.0
2017-Dec-11 20:19N 33°53' E 134°43'1312.2
2017-Dec-11 19:14N 33°47' E 134°57'108 8.7
2017-Dec-11 06:50N 34°39' E 136°52'914.0
2017-Dec-11 06:13N 34°46' E 136°46'314.3
2017-Dec-11 06:00N 34°49' E 136°45'714.1
2017-Dec-11 05:30N 34°56' E 136°43'4 8.0
2017-Dec-11 05:00N 34°58' E 136°39'0 0.0
2017-Dec-11 04:30N 34°58' E 136°39'0 0.0
2017-Dec-11 03:58N 34°58' E 136°39'0 0.0
2017-Dec-11 03:22N 34°58' E 136°39'0 0.0
2017-Dec-11 02:58N 34°58' E 136°39'0 0.0
2017-Dec-11 02:22N 34°58' E 136°39'0 0.0
2017-Dec-11 01:58N 34°58' E 136°39'0 0.0
2017-Dec-11 01:28N 34°58' E 136°39'0 0.0
2017-Dec-11 00:58N 34°58' E 136°39'0 0.0
2017-Dec-11 00:28N 34°58' E 136°39'0 0.0
2017-Dec-10 23:58N 34°58' E 136°39'2 4.2
2017-Dec-10 23:30N 34°57' E 136°41'0 0.6
2017-Dec-10 22:59N 34°57' E 136°41'0 0.0
2017-Dec-10 22:29N 34°57' E 136°41'0 0.0
2017-Dec-10 21:59N 34°57' E 136°41'0 0.0
2017-Dec-10 21:29N 34°57' E 136°41'0 0.0
2017-Dec-10 20:59N 34°57' E 136°41'0 0.0
2017-Dec-10 20:29N 34°57' E 136°41'0 0.0
2017-Dec-10 19:56N 34°57' E 136°41'0 0.0
2017-Dec-10 19:29N 34°57' E 136°41'0 0.1
2017-Dec-10 18:59N 34°57' E 136°41'0 0.0
2017-Dec-10 18:29N 34°57' E 136°41'0 0.0
2017-Dec-10 17:59N 34°57' E 136°41'0 0.0
2017-Dec-10 17:29N 34°57' E 136°41'0 0.0
2017-Dec-10 16:59N 34°57' E 136°41'0 0.0
2017-Dec-10 16:29N 34°57' E 136°41'0 0.0
2017-Dec-10 15:59N 34°57' E 136°41'0 0.0
2017-Dec-10 15:29N 34°57' E 136°41'0 0.0
2017-Dec-10 14:59N 34°57' E 136°41'0 0.0
2017-Dec-10 14:29N 34°57' E 136°41'0 0.0
2017-Dec-10 13:59N 34°57' E 136°41'0 0.0
2017-Dec-10 13:29N 34°57' E 136°41'0 0.1
2017-Dec-10 12:59N 34°57' E 136°42'0 0.1
2017-Dec-10 12:29N 34°57' E 136°41'0 0.0
2017-Dec-10 11:59N 34°57' E 136°41'0 0.1
2017-Dec-10 11:29N 34°57' E 136°42'0 0.0
2017-Dec-10 10:59N 34°57' E 136°42'0 0.0
2017-Dec-10 10:29N 34°57' E 136°42'0 0.0
2017-Dec-10 09:59N 34°57' E 136°42'0 0.0
2017-Dec-10 09:29N 34°57' E 136°42'2 4.5
2017-Dec-10 09:00N 34°58' E 136°39'0 0.3
2017-Dec-10 08:25N 34°58' E 136°39'0 0.0
2017-Dec-10 07:55N 34°58' E 136°39'0 0.0
2017-Dec-10 07:25N 34°58' E 136°39'0 0.0
2017-Dec-10 06:55N 34°58' E 136°39'0 0.0
2017-Dec-10 06:19N 34°58' E 136°39'0 0.0
2017-Dec-10 05:55N 34°58' E 136°39'0 0.0
2017-Dec-10 05:25N 34°58' E 136°39'0 0.0
2017-Dec-10 04:55N 34°58' E 136°39'1 1.8
2017-Dec-10 04:30N 34°58' E 136°40'611.3
2017-Dec-10 04:00N 34°53' E 136°44'612.8
2017-Dec-10 03:30N 34°48' E 136°47'612.6
2017-Dec-10 03:00N 34°42' E 136°50'1811.5
2017-Dec-10 01:24N 34°33' E 137°10'512.8
2017-Dec-10 01:00N 34°32' E 137°16'3612.9
2017-Dec-09 22:14N 34°32' E 137°59'312.1
2017-Dec-09 22:00N 34°32' E 138°03'811.5
2017-Dec-09 21:18N 34°32' E 138°13'311.4
2017-Dec-09 21:00N 34°32' E 138°17'711.8
2017-Dec-09 20:26N 34°32' E 138°25'511.6
2017-Dec-09 20:00N 34°32' E 138°31'611.3
2017-Dec-09 19:30N 34°32' E 138°38'711.0
2017-Dec-09 18:49N 34°33' E 138°47'310.7
2017-Dec-09 18:30N 34°33' E 138°51'510.1
2017-Dec-09 18:00N 34°33' E 138°57'711.1
2017-Dec-09 17:24N 34°38' E 139°03'511.6
2017-Dec-09 17:00N 34°41' E 139°07'611.2
2017-Dec-09 16:29N 34°45' E 139°12'511.1
2017-Dec-09 16:00N 34°49' E 139°17'611.2
2017-Dec-09 15:26N 34°52' E 139°23'812.0
2017-Dec-09 14:48N 34°57' E 139°30'412.5
2017-Dec-09 14:30N 34°59' E 139°34'611.8
2017-Dec-09 14:00N 35°03' E 139°40'612.4
2017-Dec-09 13:30N 35°08' E 139°45'713.2
2017-Dec-09 13:00N 35°14' E 139°46'613.0
2017-Dec-09 12:31N 35°20' E 139°43'611.9
2017-Dec-09 12:00N 35°26' E 139°45'713.1
2017-Dec-09 11:30N 35°29' E 139°51'612.9
2017-Dec-09 11:00N 35°32' E 139°59'4 7.8
2017-Dec-09 10:30N 35°32' E 140°03'0 0.0
2017-Dec-09 06:24N 35°32' E 140°03'1 2.0
2017-Dec-09 06:01N 35°32' E 140°02'0 0.5
2017-Dec-09 05:29N 35°32' E 140°02'0 0.0
2017-Dec-09 05:00N 35°32' E 140°02'611.0
2017-Dec-09 04:30N 35°29' E 139°56'613.2
2017-Dec-09 04:00N 35°26' E 139°49'713.4
2017-Dec-09 03:30N 35°21' E 139°45'612.5
2017-Dec-09 03:00N 35°15' E 139°47'713.8
2017-Dec-09 02:30N 35°08' E 139°46'714.1
2017-Dec-09 02:00N 35°03' E 139°40'714.2
2017-Dec-09 01:30N 34°58' E 139°33'815.0
2017-Dec-09 00:58N 34°54' E 139°25'714.2
2017-Dec-09 00:27N 34°49' E 139°18'714.9
2017-Dec-09 00:00N 34°44' E 139°12'714.8
2017-Dec-08 23:30N 34°39' E 139°06'714.4
2017-Dec-08 23:00N 34°34' E 138°59'713.8
2017-Dec-08 22:30N 34°32' E 138°51'815.1
2017-Dec-08 21:58N 34°32' E 138°42'815.2
2017-Dec-08 21:29N 34°32' E 138°32'914.8
2017-Dec-08 20:51N 34°32' E 138°21'515.1
2017-Dec-08 20:30N 34°32' E 138°15'815.0
2017-Dec-08 19:59N 34°32' E 138°05'714.5
2017-Dec-08 19:29N 34°32' E 137°56'6413.0
2017-Dec-08 14:36N 34°05' E 136°46'213.0
2017-Dec-08 14:25N 34°04' E 136°44'8710.5
2017-Dec-08 06:10N 33°52' E 135°01'814.4
2017-Dec-08 05:39N 33°60' E 135°01'214.2
2017-Dec-08 05:31N 34°01' E 135°01'713.3
2017-Dec-08 05:00N 34°08' E 135°05'612.3
2017-Dec-08 04:30N 34°09' E 135°12'0 0.1
2017-Dec-08 01:17N 34°09' E 135°12'0 0.0
2017-Dec-08 00:41N 34°09' E 135°12'0 0.3
2017-Dec-08 00:30N 34°09' E 135°12'1 2.8
2017-Dec-08 00:00N 34°09' E 135°10'1 1.9
2017-Dec-07 23:30N 34°09' E 135°09'0 0.0
2017-Dec-07 23:00N 34°09' E 135°09'0 0.0
2017-Dec-07 22:30N 34°09' E 135°09'0 0.0
2017-Dec-07 22:00N 34°09' E 135°09'0 0.1
2017-Dec-07 21:30N 34°09' E 135°09'0 0.2
2017-Dec-07 21:00N 34°09' E 135°09'0 0.1
2017-Dec-07 20:30N 34°09' E 135°09'0 0.0
2017-Dec-07 20:00N 34°09' E 135°09'0 0.1
2017-Dec-07 19:27N 34°09' E 135°09'0 0.0
2017-Dec-07 19:00N 34°09' E 135°09'0 0.1
2017-Dec-07 18:30N 34°09' E 135°09'0 0.6
2017-Dec-07 18:00N 34°10' E 135°09'510.5
2017-Dec-07 17:31N 34°13' E 135°04'612.8
2017-Dec-07 17:00N 34°17' E 134°58'713.1
2017-Dec-07 16:30N 34°24' E 134°60'612.7
2017-Dec-07 16:00N 34°30' E 135°01'611.8
2017-Dec-07 15:30N 34°36' E 135°03'510.2
2017-Dec-07 15:00N 34°36' E 134°57'611.5
2017-Dec-07 14:30N 34°34' E 134°50'612.0
2017-Dec-07 14:00N 34°31' E 134°43'612.5
2017-Dec-07 13:30N 34°29' E 134°36'712.8
2017-Dec-07 13:00N 34°26' E 134°29'912.6
2017-Dec-07 12:16N 34°23' E 134°19'512.1
2017-Dec-07 11:49N 34°24' E 134°12'  

Dump ship's entire track history